Portada
METAR-TAF:

METAR-TAF

Aeroports :

Angulema, França

latitud: 45-43-46N, longitud: 00-13-08E, altitud: 132 m

Observació

L'informe es va fer fa 17 minuts, a les 18:00 UTC
Vent 7 kt del Nord/Nord-Est
Temperatura 15°C
Humitat 82%
Pressió 1021 hPa
Visibilitat: 9000 m

METAR: LFBU 191800Z AUTO 02007KT 9000 NSC 15/12 Q1021 NOSIG

Hora: 20:17 (18:17 UTC)

Pronòstic

L'informe es va fer fa 1 hora i 17 minuts, a les 17:00 UTC
Pronòstic vàlid del 19 a les 18 UTC al 20 a les 18 UTC
Vent 10 kt del Nord-Est
Visibilitat 10 km o més
sense núvols per sota de 1500 mi sense presència de cumulonimbus.
Probabilitat 30%
l' 20 a les 03 UTC al 20 a les 08 UTC
Visibilitat: 3000 m
Cel ennuvolat a una alçada de 300 ft
boirina

TAF: LFBU 191700Z 1918/2018 04010KT CAVOK PROB30 2003/2008 3000 BR BKN003

Observacions i pronòstics meteorològics de més de 4000 aeroports (METAR i TAF).

Les estacions disponibles són els punts grocs i vermells al mapa.

Posi el ratolí al punt desitjat per veure el nom de l'estació.

Feu clic per veure les observacions i els pronòstics meteorològics.

Per canviar el mapa: feu clic els botons verds amb una creu de color negre per apropar; al botó verd amb un guió per allunyar la imatge; o en les fletxes verdes per a mapes adjacents.


METAR-TAF: